Time;durP1;ratioP1;P1;durP2;ratioP2;P2;SDS_P1;SDS_P2;PMS_P1;PMS_P2;Temp;Humidity;BMP_temperature;BMP_pressure;BME280_temperature;BME280_humidity;BME280_pressure;Samples;Min_cycle;Max_cycle;Signal;HPM_P1;HPM_P2
2021/05/22 00:00:46;;;;;;;5.80;2.10;;;;;;;14.44;69.00;100499.78;5014181;28;20034;-71
2021/05/22 00:03:12;;;;;;;2.63;1.92;;;;;;;14.42;69.03;100493.72;5014194;28;20117;-71
2021/05/22 00:05:38;;;;;;;4.30;2.28;;;;;;;14.32;69.24;100488.81;5014028;28;20021;-72
2021/05/22 00:08:04;;;;;;;4.18;1.60;;;;;;;14.29;69.47;100483.97;5014363;28;20026;-71
2021/05/22 00:10:29;;;;;;;3.08;1.88;;;;;;;14.36;69.36;100487.66;5014096;28;20448;-70
2021/05/22 00:12:55;;;;;;;2.65;1.65;;;;;;;14.39;69.02;100486.09;5013888;28;20469;-71
2021/05/22 00:15:21;;;;;;;2.80;2.10;;;;;;;14.42;69.09;100474.94;5013971;28;20037;-70
2021/05/22 00:17:47;;;;;;;2.25;1.77;;;;;;;14.31;69.37;100473.19;5013835;28;20018;-71
2021/05/22 00:20:13;;;;;;;2.30;1.55;;;;;;;14.28;69.64;100482.38;5013996;28;20033;-71
2021/05/22 00:22:41;;;;;;;3.28;2.03;;;;;;;14.27;69.53;100481.53;5014341;28;20033;-71
2021/05/22 00:25:07;;;;;;;3.72;1.83;;;;;;;14.23;69.68;100474.31;5014601;28;20018;-72
2021/05/22 00:27:33;;;;;;;5.28;1.80;;;;;;;14.20;70.40;100477.88;5013661;28;20109;-71
2021/05/22 00:29:59;;;;;;;4.68;1.65;;;;;;;14.21;69.74;100471.88;5013629;28;20124;-71
2021/05/22 00:32:24;;;;;;;4.47;1.48;;;;;;;14.30;69.71;100480.00;5013669;28;20030;-71
2021/05/22 00:34:50;;;;;;;5.80;1.73;;;;;;;14.21;70.19;100471.06;5013466;28;20029;-71
2021/05/22 00:37:15;;;;;;;2.05;1.50;;;;;;;14.19;70.25;100467.84;5013622;28;20033;-71
2021/05/22 00:39:41;;;;;;;1.58;1.42;;;;;;;14.15;70.36;100468.59;5013398;28;20022;-73
2021/05/22 00:42:06;;;;;;;4.75;1.63;;;;;;;14.20;70.56;100464.66;5013640;28;20116;-71
2021/05/22 00:44:33;;;;;;;5.80;1.88;;;;;;;14.14;71.18;100460.59;5013468;28;20465;-70
2021/05/22 00:47:02;;;;;;;1.83;1.70;;;;;;;14.17;70.59;100451.47;5013321;28;20030;-71
2021/05/22 00:49:28;;;;;;;4.68;1.50;;;;;;;14.26;70.71;100448.34;4996759;28;20141;-71
2021/05/22 00:51:55;;;;;;;5.38;1.38;;;;;;;14.28;70.57;100446.00;5013033;28;20030;-71
2021/05/22 00:54:20;;;;;;;2.63;1.50;;;;;;;14.18;70.43;100438.28;5013035;28;20140;-71
2021/05/22 00:56:49;;;;;;;4.65;2.00;;;;;;;14.27;70.62;100436.75;5013119;28;20062;-72
2021/05/22 00:59:18;;;;;;;2.08;1.58;;;;;;;14.24;70.22;100448.75;5013298;28;20120;-71
2021/05/22 01:01:43;;;;;;;4.43;1.45;;;;;;;14.29;70.77;100453.19;5013197;28;20416;-71
2021/05/22 01:04:10;;;;;;;1.77;1.50;;;;;;;14.24;70.37;100445.94;5013049;28;20060;-70
2021/05/22 01:06:36;;;;;;;3.10;1.30;;;;;;;14.22;70.85;100444.69;5013104;28;20026;-71
2021/05/22 01:09:07;;;;;;;4.63;1.60;;;;;;;14.25;70.48;100443.94;5012940;28;20088;-71
2021/05/22 01:12:02;;;;;;;1.70;1.40;;;;;;;14.18;70.57;100441.88;5013122;28;20084;-71
2021/05/22 01:14:42;;;;;;;4.20;2.20;;;;;;;14.21;70.62;100443.09;5010060;28;20061;-70
2021/05/22 01:17:10;;;;;;;3.72;1.05;;;;;;;14.10;70.51;100446.56;5012772;28;20456;-71
2021/05/22 01:19:41;;;;;;;1.73;1.27;;;;;;;14.19;70.27;100448.28;5012979;28;20025;-71
2021/05/22 01:22:10;;;;;;;2.38;1.23;;;;;;;14.12;70.20;100441.41;5012737;28;20484;-71
2021/05/22 01:24:47;;;;;;;1.77;1.40;;;;;;;14.06;70.46;100444.91;5012727;28;20029;-71
2021/05/22 01:27:13;;;;;;;1.77;1.10;;;;;;;13.99;70.22;100442.81;4997032;28;20034;-71
2021/05/22 01:29:38;;;;;;;2.08;1.20;;;;;;;13.95;70.38;100455.13;5012728;28;20095;-71
2021/05/22 01:32:04;;;;;;;1.73;1.10;;;;;;;13.91;70.49;100448.72;5012581;28;20032;-71
2021/05/22 01:34:30;;;;;;;3.28;1.40;;;;;;;13.92;70.57;100445.53;5012768;28;20054;-71
2021/05/22 01:36:55;;;;;;;3.67;1.20;;;;;;;13.88;69.93;100450.25;5012851;28;20392;-71
2021/05/22 01:39:21;;;;;;;4.20;1.38;;;;;;;13.96;69.48;100432.41;5012562;28;20076;-71
2021/05/22 01:41:46;;;;;;;1.80;1.35;;;;;;;14.04;69.10;100434.09;5012609;28;20033;-71
2021/05/22 01:44:13;;;;;;;1.17;1.10;;;;;;;14.02;69.13;100430.88;5028573;28;20049;-71
2021/05/22 01:46:42;;;;;;;3.03;1.23;;;;;;;14.12;68.67;100430.22;5012651;28;20025;-71
2021/05/22 01:49:10;;;;;;;2.95;1.50;;;;;;;14.08;68.47;100420.97;5012428;28;20109;-71
2021/05/22 01:51:36;;;;;;;3.13;0.98;;;;;;;14.00;68.63;100416.44;5012570;28;20465;-71
2021/05/22 01:54:03;;;;;;;1.85;1.17;;;;;;;13.97;69.03;100416.44;5012175;28;20353;-71
2021/05/22 01:56:29;;;;;;;4.82;1.20;;;;;;;13.99;68.51;100425.22;5012383;28;20025;-71
2021/05/22 01:58:54;;;;;;;1.60;1.08;;;;;;;14.02;68.13;100430.88;5012550;28;20030;-71
2021/05/22 02:01:20;;;;;;;3.25;1.05;;;;;;;13.98;68.08;100432.03;5012288;28;20069;-71
2021/05/22 02:03:50;;;;;;;1.88;1.00;;;;;;;13.93;68.22;100421.97;5015932;28;20038;-71
2021/05/22 02:06:21;;;;;;;1.85;1.05;;;;;;;13.87;68.63;100423.47;5016239;28;20108;-71
2021/05/22 02:08:48;;;;;;;1.27;0.93;;;;;;;13.79;68.71;100416.97;5016315;28;20026;-71
2021/05/22 02:11:14;;;;;;;3.33;1.40;;;;;;;13.81;68.29;100408.22;5017785;28;20064;-71
2021/05/22 02:13:46;;;;;;;1.27;1.08;;;;;;;13.78;68.58;100414.56;5000309;28;20088;-71
2021/05/22 02:16:16;;;;;;;1.60;1.20;;;;;;;13.75;68.73;100415.34;5016161;28;20025;-71
2021/05/22 02:18:42;;;;;;;1.65;0.80;;;;;;;13.71;68.23;100409.69;5016237;28;20025;-71
2021/05/22 02:21:10;;;;;;;1.35;0.80;;;;;;;13.70;68.55;100415.66;5017013;28;20492;-71
2021/05/22 02:23:41;;;;;;;1.38;1.10;;;;;;;13.70;68.40;100424.84;5016416;28;20416;-71
2021/05/22 02:26:07;;;;;;;2.80;0.85;;;;;;;13.62;68.34;100426.72;5015567;28;20036;-71
2021/05/22 02:28:36;;;;;;;1.48;0.98;;;;;;;13.58;68.27;100423.09;5016129;28;20120;-71
2021/05/22 02:31:02;;;;;;;1.70;1.00;;;;;;;13.54;68.08;100418.63;5015969;28;20048;-70
2021/05/22 02:33:29;;;;;;;2.55;1.10;;;;;;;13.41;68.40;100426.41;5015927;28;20516;-71
2021/05/22 02:35:55;;;;;;;1.30;1.20;;;;;;;13.29;69.28;100421.06;5017199;28;20026;-70
2021/05/22 02:38:33;;;;;;;1.15;0.85;;;;;;;13.29;68.95;100424.66;5015719;28;20045;-71
2021/05/22 02:41:02;;;;;;;2.45;2.15;;;;;;;13.36;68.49;100432.31;5015947;28;20447;-70
2021/05/22 02:43:30;;;;;;;9.57;8.35;;;;;;;13.13;69.17;100410.00;5015676;28;20037;-71
2021/05/22 02:45:57;;;;;;;19.92;16.65;;;;;;;13.16;69.68;100431.59;5015831;28;20054;-70
2021/05/22 02:48:24;;;;;;;19.45;15.90;;;;;;;13.11;69.50;100424.34;5015546;28;20029;-71
2021/05/22 02:50:51;;;;;;;9.65;8.68;;;;;;;13.04;69.67;100421.41;5032500;28;20061;-71
2021/05/22 02:53:21;;;;;;;12.07;9.30;;;;;;;13.03;70.06;100425.38;4999091;28;20132;-71
2021/05/22 02:55:49;;;;;;;10.40;9.38;;;;;;;13.09;70.09;100411.91;5014234;28;20092;-70
2021/05/22 02:58:17;;;;;;;8.63;7.85;;;;;;;13.09;70.09;100418.31;5014099;28;20018;-71
2021/05/22 03:00:44;;;;;;;8.27;6.38;;;;;;;13.04;71.06;100413.03;5014295;28;20484;-71
2021/05/22 03:03:09;;;;;;;13.55;12.18;;;;;;;12.96;70.74;100394.56;5014140;28;20121;-73
2021/05/22 03:05:35;;;;;;;18.08;11.60;;;;;;;12.86;71.86;100397.97;5014027;28;20120;-70
2021/05/22 03:08:01;;;;;;;6.70;5.85;;;;;;;13.02;70.82;100393.06;5014156;28;20026;-71
2021/05/22 03:10:28;;;;;;;5.35;4.85;;;;;;;13.05;70.59;100378.34;5013928;28;20037;-71
2021/05/22 03:12:54;;;;;;;4.55;4.15;;;;;;;13.00;71.04;100380.66;5013710;28;20029;-71
2021/05/22 03:15:20;;;;;;;5.70;5.18;;;;;;;13.00;71.56;100386.25;5013900;28;20038;-71
2021/05/22 03:17:45;;;;;;;7.97;7.28;;;;;;;12.94;71.33;100380.16;5014177;28;20053;-71
2021/05/22 03:20:11;;;;;;;6.22;5.63;;;;;;;13.07;70.47;100386.34;5013992;28;20121;-71
2021/05/22 03:22:37;;;;;;;5.80;3.80;;;;;;;13.10;70.37;100386.41;5013839;28;20125;-71
2021/05/22 03:25:04;;;;;;;4.05;3.50;;;;;;;13.08;70.98;100388.75;5013924;28;20022;-71
2021/05/22 03:27:31;;;;;;;10.65;9.75;;;;;;;13.07;71.09;100381.56;5013640;28;20523;-71
2021/05/22 03:29:57;;;;;;;7.85;7.07;;;;;;;13.05;70.74;100372.78;5013863;28;20030;-70
2021/05/22 03:32:23;;;;;;;9.70;7.22;;;;;;;13.10;70.23;100380.84;5013329;28;20022;-71
2021/05/22 03:34:49;;;;;;;6.72;5.40;;;;;;;13.07;70.84;100383.56;5013758;28;20069;-71
2021/05/22 03:37:15;;;;;;;5.70;5.00;;;;;;;12.97;70.81;100385.00;5013680;28;20080;-71
2021/05/22 03:39:41;;;;;;;5.80;4.80;;;;;;;12.93;71.09;100380.53;5013570;28;20029;-70
2021/05/22 03:42:09;;;;;;;3.60;3.30;;;;;;;12.98;71.15;100383.81;5013974;28;20018;-71
2021/05/22 03:44:35;;;;;;;4.50;2.78;;;;;;;13.01;70.89;100383.06;5013422;28;20164;-71
2021/05/22 03:47:00;;;;;;;4.20;3.80;;;;;;;13.01;71.55;100387.84;5013510;28;20117;-71
2021/05/22 03:49:28;;;;;;;9.90;5.47;;;;;;;13.10;70.95;100385.59;5013492;28;20069;-70
2021/05/22 03:51:54;;;;;;;15.23;11.93;;;;;;;13.07;71.36;100395.53;5013398;28;20025;-70
2021/05/22 03:54:19;;;;;;;31.77;24.50;;;;;;;13.10;71.66;100389.22;4982616;28;889227;-70
2021/05/22 03:56:45;;;;;;;32.25;24.33;;;;;;;13.17;70.98;100390.50;5014349;28;20438;-71
2021/05/22 03:59:10;;;;;;;20.42;14.75;;;;;;;13.27;70.92;100385.09;5014195;28;20503;-71
2021/05/22 04:01:36;;;;;;;11.10;7.25;;;;;;;13.27;70.62;100375.91;5014515;28;20026;-70
2021/05/22 04:04:03;;;;;;;12.10;5.78;;;;;;;13.31;70.67;100382.34;5014070;28;20033;-71
2021/05/22 04:06:28;;;;;;;6.03;4.97;;;;;;;13.39;70.87;100378.50;5014259;28;20464;-71
2021/05/22 04:08:54;;;;;;;8.32;7.13;;;;;;;14.19;68.26;100375.53;5014100;28;20032;-71
2021/05/22 04:11:19;;;;;;;5.90;5.30;;;;;;;14.83;65.79;100379.78;5014054;28;20365;-71
2021/05/22 04:13:45;;;;;;;3.22;2.90;;;;;;;15.31;64.21;100381.75;5014016;28;20033;-71
2021/05/22 04:16:10;;;;;;;4.72;2.03;;;;;;;15.97;61.16;100380.53;5013889;28;20026;-71
2021/05/22 04:18:36;;;;;;;1.50;1.40;;;;;;;15.58;61.74;100376.72;5013890;28;20025;-70
2021/05/22 04:21:01;;;;;;;3.65;1.83;;;;;;;15.45;62.98;100377.06;5013720;28;20033;-70
2021/05/22 04:23:27;;;;;;;2.42;1.38;;;;;;;16.35;59.45;100391.47;5014104;28;20072;-71
2021/05/22 04:25:53;;;;;;;1.50;1.27;;;;;;;17.19;57.47;100403.25;5012857;28;20104;-71
2021/05/22 04:28:18;;;;;;;4.75;1.50;;;;;;;17.95;55.20;100387.81;5013530;28;20076;-71
2021/05/22 04:30:44;;;;;;;3.33;1.52;;;;;;;18.68;53.50;100401.16;5013549;28;20436;-71
2021/05/22 04:33:09;;;;;;;1.25;1.15;;;;;;;18.54;52.50;100402.03;5013439;28;20034;-71
2021/05/22 04:35:35;;;;;;;2.53;1.15;;;;;;;18.03;53.76;100409.91;5013531;28;20022;-71
2021/05/22 04:38:04;;;;;;;1.33;1.23;;;;;;;18.38;54.00;100410.19;5013435;28;20065;-71
2021/05/22 04:40:29;;;;;;;1.45;1.33;;;;;;;19.00;52.14;100413.00;5013409;28;20032;-70
2021/05/22 04:42:55;;;;;;;1.38;1.10;;;;;;;19.48;50.93;100414.97;5013206;28;20026;-71
2021/05/22 04:45:25;;;;;;;5.53;1.40;;;;;;;18.55;53.04;100418.53;5013182;28;20030;-71
2021/05/22 04:47:51;;;;;;;3.08;1.42;;;;;;;19.14;51.90;100426.19;5013129;28;20040;-71
2021/05/22 04:50:17;;;;;;;1.35;1.20;;;;;;;18.74;52.27;100416.41;5012632;28;20030;-70
2021/05/22 04:52:42;;;;;;;1.80;1.70;;;;;;;18.59;52.62;100421.31;5013068;28;20457;-70
2021/05/22 04:55:09;;;;;;;2.53;1.80;;;;;;;18.24;53.49;100423.09;5012710;28;20136;-72
2021/05/22 04:57:37;;;;;;;5.18;1.70;;;;;;;17.93;55.04;100424.81;5013080;28;20022;-71
2021/05/22 05:00:07;;;;;;;2.15;1.65;;;;;;;17.65;55.80;100422.06;5014094;28;20372;-72
2021/05/22 05:02:32;;;;;;;1.85;1.52;;;;;;;17.49;56.49;100436.56;5012897;28;20416;-71
2021/05/22 05:04:58;;;;;;;2.53;1.65;;;;;;;17.31;57.27;100430.13;5012773;28;20021;-71
2021/05/22 05:07:24;;;;;;;7.35;1.85;;;;;;;17.23;57.27;100437.78;5012636;28;20021;-71
2021/05/22 05:09:51;;;;;;;3.58;1.60;;;;;;;17.22;57.47;100448.25;5012658;28;20369;-71
2021/05/22 05:12:16;;;;;;;1.70;1.58;;;;;;;17.14;57.50;100446.63;5012566;28;20022;-71
2021/05/22 05:14:42;;;;;;;2.63;1.60;;;;;;;16.92;58.26;100445.00;5012423;28;20030;-71
2021/05/22 05:17:11;;;;;;;4.97;1.80;;;;;;;16.94;57.90;100445.41;5011903;28;20025;-71
2021/05/22 05:19:36;;;;;;;2.17;1.48;;;;;;;16.53;59.15;100437.28;5012108;28;20030;-71
2021/05/22 05:22:04;;;;;;;4.15;2.17;;;;;;;16.75;58.68;100453.00;5012664;28;20529;-71
2021/05/22 05:24:30;;;;;;;2.38;1.70;;;;;;;16.75;58.71;100449.38;5012485;28;20030;-71
2021/05/22 05:26:55;;;;;;;2.53;1.70;;;;;;;16.81;58.55;100452.63;5012689;28;20033;-71
2021/05/22 05:29:24;;;;;;;3.30;2.50;;;;;;;16.90;57.95;100467.09;5012511;28;20490;-71
2021/05/22 05:31:51;;;;;;;3.78;2.83;;;;;;;16.76;58.40;100453.81;5013888;28;20033;-71
2021/05/22 05:34:17;;;;;;;4.22;3.53;;;;;;;16.70;58.50;100458.97;5012488;28;20441;-71
2021/05/22 05:36:43;;;;;;;5.68;3.10;;;;;;;17.23;57.74;100471.53;4996084;28;20376;-70
2021/05/22 05:39:10;;;;;;;5.90;4.50;;;;;;;18.04;55.10;100469.84;5013508;28;20022;-71
2021/05/22 05:41:37;;;;;;;6.68;4.25;;;;;;;18.51;53.62;100470.47;5012375;28;20369;-72
2021/05/22 05:44:03;;;;;;;5.38;3.92;;;;;;;19.06;52.45;100476.19;5012307;28;20036;-69
2021/05/22 05:46:29;;;;;;;5.13;3.15;;;;;;;19.47;50.83;100472.66;5012281;28;20026;-69
2021/05/22 05:48:54;;;;;;;3.35;2.28;;;;;;;19.52;50.07;100477.84;5012402;28;20416;-70
2021/05/22 05:51:20;;;;;;;1.85;1.70;;;;;;;19.75;49.61;100479.25;5012588;28;20044;-70
2021/05/22 05:53:45;;;;;;;3.55;1.90;;;;;;;19.63;50.19;100477.78;5012397;28;20117;-70
2021/05/22 05:56:11;;;;;;;1.95;1.20;;;;;;;19.39;50.17;100479.59;5011780;28;20057;-72
2021/05/22 05:58:37;;;;;;;3.40;1.40;;;;;;;19.46;50.36;100485.16;5012203;28;20061;-70
2021/05/22 06:01:07;;;;;;;2.47;1.83;;;;;;;19.55;50.26;100481.88;5012296;28;20479;-70
2021/05/22 06:03:33;;;;;;;1.95;1.30;;;;;;;19.59;49.82;100489.09;5012168;28;20498;-70
2021/05/22 06:05:59;;;;;;;1.13;1.10;;;;;;;19.75;49.89;100487.72;5012210;28;20068;-70
2021/05/22 06:08:25;;;;;;;2.03;1.30;;;;;;;19.49;50.49;100489.16;5012039;28;20030;-70
2021/05/22 06:10:53;;;;;;;2.17;1.60;;;;;;;18.88;51.99;100483.97;5012058;28;20025;-70
2021/05/22 06:13:31;;;;;;;1.63;1.40;;;;;;;18.76;52.57;100482.44;5011999;28;20061;-70
2021/05/22 06:16:20;;;;;;;1.52;1.40;;;;;;;18.72;53.47;100492.94;5012077;28;20026;-70
2021/05/22 06:18:49;;;;;;;3.85;1.40;;;;;;;19.77;50.42;100490.97;5011801;28;20030;-69
2021/05/22 06:21:15;;;;;;;2.38;1.48;;;;;;;20.91;47.39;100504.53;5012068;28;20360;-69
2021/05/22 06:23:41;;;;;;;4.05;1.42;;;;;;;21.10;46.69;100510.75;5012073;28;20053;-70
2021/05/22 06:26:06;;;;;;;1.73;1.48;;;;;;;20.82;46.50;100512.72;5011756;28;20453;-70
2021/05/22 06:28:32;;;;;;;2.92;2.33;;;;;;;20.99;46.57;100512.94;5011737;28;20061;-71
2021/05/22 06:31:05;;;;;;;3.05;2.25;;;;;;;21.11;46.38;100515.16;5011533;28;20108;-70
2021/05/22 06:33:31;;;;;;;2.38;2.17;;;;;;;20.77;47.41;100512.41;5011363;28;20376;-71
2021/05/22 06:35:57;;;;;;;2.55;1.77;;;;;;;21.86;45.19;100511.91;5011600;28;20018;-71
2021/05/22 06:38:24;;;;;;;2.35;1.80;;;;;;;22.10;44.23;100517.53;5011392;28;20461;-73
2021/05/22 06:40:51;;;;;;;4.47;2.15;;;;;;;22.79;42.07;100515.75;5011689;28;20026;-71
2021/05/22 06:43:17;;;;;;;2.65;2.05;;;;;;;22.48;42.96;100498.22;5011841;28;20026;-71
2021/05/22 06:45:45;;;;;;;3.28;1.80;;;;;;;22.76;42.36;100522.31;5011469;28;20026;-72
2021/05/22 06:48:12;;;;;;;2.97;1.60;;;;;;;22.52;42.66;100530.09;5012553;28;20026;-71
2021/05/22 06:50:40;;;;;;;3.55;1.92;;;;;;;22.73;42.38;100535.31;5015217;28;20461;-71
2021/05/22 06:53:08;;;;;;;2.45;1.80;;;;;;;22.99;41.70;100535.59;5016932;28;20029;-71
2021/05/22 06:55:36;;;;;;;3.80;1.50;;;;;;;22.60;42.33;100536.44;5015986;28;20057;-71
2021/05/22 06:58:01;;;;;;;2.47;1.40;;;;;;;22.78;42.40;100528.34;5015261;28;20048;-71
2021/05/22 07:00:27;;;;;;;4.35;1.55;;;;;;;22.85;41.90;100531.03;5016639;28;20456;-71
2021/05/22 07:02:53;;;;;;;3.85;1.63;;;;;;;22.59;42.74;100534.84;5016190;28;20025;-71
2021/05/22 07:05:19;;;;;;;3.40;1.15;;;;;;;22.82;41.72;100534.72;5015169;28;20082;-71
2021/05/22 07:07:44;;;;;;;2.78;1.15;;;;;;;22.64;42.17;100531.50;5015006;28;20026;-71
2021/05/22 07:10:12;;;;;;;1.70;1.60;;;;;;;23.35;41.21;100532.75;5015210;28;20033;-71
2021/05/22 07:12:37;;;;;;;3.25;1.40;;;;;;;22.91;42.02;100537.81;5014908;28;20022;-72
2021/05/22 07:15:05;;;;;;;1.98;1.40;;;;;;;22.41;43.63;100538.81;5015008;28;20025;-72
2021/05/22 07:17:31;;;;;;;2.78;1.20;;;;;;;22.77;42.40;100535.25;5014768;28;20030;-71
2021/05/22 07:19:56;;;;;;;1.95;1.08;;;;;;;23.33;39.80;100532.41;5014878;28;20030;-72
2021/05/22 07:22:24;;;;;;;1.80;1.10;;;;;;;22.79;40.94;100534.81;5014772;28;20033;-71
2021/05/22 07:24:49;;;;;;;2.40;1.30;;;;;;;22.33;42.10;100531.72;5014619;28;20033;-72
2021/05/22 07:27:16;;;;;;;2.28;1.60;;;;;;;22.86;41.10;100532.63;5014837;28;20028;-70
2021/05/22 07:29:49;;;;;;;2.05;1.48;;;;;;;22.80;40.57;100531.56;5014659;28;20038;-71
2021/05/22 07:32:15;;;;;;;1.80;1.13;;;;;;;22.98;39.60;100528.34;5014712;28;20022;-72
2021/05/22 07:34:40;;;;;;;1.40;1.10;;;;;;;23.68;36.23;100515.72;5014262;28;20026;-73
2021/05/22 07:37:09;;;;;;;5.38;1.80;;;;;;;23.21;39.54;100519.66;5014641;28;20057;-74
2021/05/22 07:39:35;;;;;;;2.22;2.00;;;;;;;24.19;38.34;100518.84;5015534;28;20030;-74
2021/05/22 07:42:01;;;;;;;2.00;1.80;;;;;;;24.50;36.32;100522.03;5014454;28;20089;-73
2021/05/22 07:44:26;;;;;;;2.65;1.33;;;;;;;23.64;36.96;100507.28;5014356;28;20022;-75
2021/05/22 07:46:52;;;;;;;2.75;1.77;;;;;;;24.40;37.22;100512.59;5014281;28;20134;-75
2021/05/22 07:49:18;;;;;;;2.28;1.48;;;;;;;24.66;36.53;100506.94;5014436;28;20072;-75
2021/05/22 07:51:45;;;;;;;2.42;1.17;;;;;;;23.72;37.34;100502.25;5014277;28;20112;-75
2021/05/22 07:54:11;;;;;;;1.80;1.58;;;;;;;24.21;36.69;100499.28;5014084;28;20476;-75
2021/05/22 07:56:37;;;;;;;2.28;1.40;;;;;;;23.62;37.29;100506.13;5013116;28;20061;-75
2021/05/22 07:59:02;;;;;;;1.30;1.20;;;;;;;23.61;37.06;100501.69;5013737;28;20353;-75
2021/05/22 08:01:28;;;;;;;2.67;1.20;;;;;;;24.55;35.38;100505.25;5013417;28;20030;-75
2021/05/22 08:03:54;;;;;;;3.42;1.27;;;;;;;24.53;34.38;100499.19;5013795;28;20049;-74
2021/05/22 08:06:19;;;;;;;3.38;1.38;;;;;;;24.38;33.38;100506.53;5014138;28;20512;-74
2021/05/22 08:08:47;;;;;;;2.53;1.02;;;;;;;24.30;33.53;100500.22;5013759;28;20350;-74
2021/05/22 08:11:12;;;;;;;1.90;1.25;;;;;;;24.45;33.14;100508.38;5013616;28;20108;-74
2021/05/22 08:13:38;;;;;;;6.13;1.38;;;;;;;25.73;31.41;100520.66;5013933;28;20440;-74
2021/05/22 08:16:04;;;;;;;2.28;1.10;;;;;;;26.12;30.54;100508.69;5013779;28;20124;-74
2021/05/22 08:18:29;;;;;;;3.28;1.67;;;;;;;25.82;30.50;100513.00;5029747;28;20026;-74
2021/05/22 08:20:56;;;;;;;1.00;1.00;;;;;;;25.42;30.85;100507.03;5013441;28;20041;-75
2021/05/22 08:23:22;;;;;;;1.02;1.02;;;;;;;24.86;31.31;100498.22;5013797;28;20480;-74
2021/05/22 08:25:47;;;;;;;1.45;1.15;;;;;;;26.07;30.38;100492.16;5013571;28;20056;-74
2021/05/22 08:28:20;;;;;;;1.40;1.30;;;;;;;26.52;29.29;100490.94;5013660;28;20380;-75
2021/05/22 08:30:49;;;;;;;1.42;1.33;;;;;;;26.56;29.61;100480.19;5014898;28;20041;-75
2021/05/22 08:33:14;;;;;;;3.47;1.52;;;;;;;26.68;28.44;100464.22;5013472;28;20037;-75
2021/05/22 08:35:43;;;;;;;2.80;1.00;;;;;;;25.87;28.78;100485.97;5013492;28;20025;-75
2021/05/22 08:38:09;;;;;;;1.38;1.27;;;;;;;25.85;29.55;100483.59;5013371;28;20409;-74
2021/05/22 08:40:35;;;;;;;3.47;1.10;;;;;;;26.42;28.23;100492.16;5013374;28;20461;-75
2021/05/22 08:43:01;;;;;;;1.67;1.17;;;;;;;26.45;28.35;100485.50;5013250;28;20037;-75
2021/05/22 08:45:29;;;;;;;2.83;1.30;;;;;;;25.81;29.73;100484.97;5013439;28;20029;-75
2021/05/22 08:47:56;;;;;;;1.90;1.10;;;;;;;25.88;29.60;100481.84;5013208;28;20068;-75
2021/05/22 08:50:22;;;;;;;2.38;1.60;;;;;;;26.71;28.60;100483.28;5013357;28;20073;-75
2021/05/22 08:52:49;;;;;;;3.72;1.27;;;;;;;27.10;27.58;100481.75;5013007;28;20485;-75
2021/05/22 08:55:15;;;;;;;3.50;1.52;;;;;;;26.82;28.06;100472.25;5014330;28;20046;-75
2021/05/22 08:57:42;;;;;;;2.60;1.55;;;;;;;26.57;28.76;100461.78;5014372;28;20032;-75
2021/05/22 09:00:12;;;;;;;1.33;1.17;;;;;;;26.87;28.69;100477.34;5012912;28;20025;-75
2021/05/22 09:02:39;;;;;;;1.75;1.40;;;;;;;28.28;26.57;100470.97;5013094;28;20021;-74
2021/05/22 09:05:21;;;;;;;1.70;1.40;;;;;;;26.77;27.55;100481.41;5012632;28;20026;-75
2021/05/22 09:07:52;;;;;;;1.92;1.55;;;;;;;25.26;28.18;100467.28;5014614;28;20026;-75
2021/05/22 09:10:27;;;;;;;2.88;1.13;;;;;;;25.71;28.08;100472.66;5012808;28;20491;-75
2021/05/22 09:13:20;;;;;;;4.00;1.73;;;;;;;26.71;26.64;100474.72;5012583;28;20064;-74
2021/05/22 09:15:48;;;;;;;4.22;1.70;;;;;;;27.59;26.05;100468.72;5012890;28;20034;-75
2021/05/22 09:18:16;;;;;;;2.20;1.27;;;;;;;26.93;26.70;100485.31;5012489;28;20068;-75
2021/05/22 09:20:49;;;;;;;1.52;1.13;;;;;;;26.48;26.91;100481.75;5012432;28;20022;-75
2021/05/22 09:23:26;;;;;;;1.73;1.15;;;;;;;25.57;27.75;100476.00;5013877;28;20049;-74
2021/05/22 09:26:13;;;;;;;1.98;1.42;;;;;;;26.13;26.79;100469.56;4996355;28;20075;-75
2021/05/22 09:28:49;;;;;;;2.63;1.58;;;;;;;26.68;26.12;100463.44;5012714;28;20080;-74
2021/05/22 09:31:19;;;;;;;4.55;1.52;;;;;;;25.98;27.10;100469.28;5012431;28;20121;-75
2021/05/22 09:33:45;;;;;;;4.20;1.55;;;;;;;25.87;26.85;100474.56;5012721;28;20133;-74
2021/05/22 09:36:13;;;;;;;2.78;1.35;;;;;;;26.26;26.39;100467.47;5012218;28;20471;-75
2021/05/22 09:38:44;;;;;;;1.95;1.30;;;;;;;26.55;25.46;100464.34;5012483;28;20018;-74
2021/05/22 09:41:17;;;;;;;2.75;1.40;;;;;;;26.95;25.63;100472.13;5012260;28;20124;-75
2021/05/22 09:44:14;;;;;;;1.63;1.20;;;;;;;27.40;24.91;100457.25;5012569;28;20401;-75
2021/05/22 09:46:46;;;;;;;2.17;1.55;;;;;;;25.91;25.70;100458.13;5012381;28;20034;-75
2021/05/22 09:49:24;;;;;;;2.88;1.25;;;;;;;25.34;25.87;100423.84;5012216;28;20021;-75
2021/05/22 09:52:10;;;;;;;4.20;1.42;;;;;;;26.32;24.69;100459.09;5012430;28;20439;-75
2021/05/22 09:54:58;;;;;;;1.40;1.30;;;;;;;26.63;23.61;100462.81;5013560;28;20061;-75
2021/05/22 09:57:44;;;;;;;4.43;1.30;;;;;;;27.53;22.54;100462.81;5012096;28;20439;-76
2021/05/22 10:00:39;;;;;;;3.90;1.15;;;;;;;28.34;20.82;100454.03;5012004;28;20057;-76
2021/05/22 10:03:05;;;;;;;1.42;0.93;;;;;;;28.61;20.97;100453.97;4999167;28;20091;-75
2021/05/22 10:05:33;;;;;;;2.50;0.80;;;;;;;28.76;20.56;100450.38;5012120;28;20478;-78
2021/05/22 10:08:01;;;;;;;1.58;0.70;;;;;;;28.67;20.50;100448.38;5013908;28;20077;-76
2021/05/22 10:10:46;;;;;;;0.70;0.70;;;;;;;29.11;19.39;100442.97;5011935;28;20084;-75
2021/05/22 10:13:15;;;;;;;1.52;0.82;;;;;;;28.51;20.24;100438.06;5011935;28;20468;-76
2021/05/22 10:15:41;;;;;;;3.33;0.65;;;;;;;29.49;19.53;100439.38;5012115;28;20372;-75
2021/05/22 10:18:07;;;;;;;1.05;0.93;;;;;;;28.61;20.93;100445.38;5011807;28;20120;-75
2021/05/22 10:20:33;;;;;;;1.27;0.85;;;;;;;28.75;20.80;100448.81;5012096;28;20041;-76
2021/05/22 10:23:00;;;;;;;2.00;0.75;;;;;;;27.53;20.63;100454.25;5012334;28;20026;-75
2021/05/22 10:25:28;;;;;;;0.82;0.80;;;;;;;27.93;21.38;100437.00;5015640;28;20121;-74
2021/05/22 10:27:55;;;;;;;1.33;0.82;;;;;;;27.97;20.96;100456.88;5015726;28;20392;-76
2021/05/22 10:30:21;;;;;;;3.05;0.90;;;;;;;27.77;21.13;100443.06;5015828;28;20076;-74
2021/05/22 10:32:47;;;;;;;2.88;1.17;;;;;;;28.35;19.92;100444.16;5015775;28;20057;-75
2021/05/22 10:35:17;;;;;;;1.60;0.50;;;;;;;28.78;20.55;100447.84;5015515;28;20533;-75
2021/05/22 10:37:51;;;;;;;1.50;0.80;;;;;;;29.19;20.50;100443.38;5015653;28;20030;-75
2021/05/22 10:40:18;;;;;;;0.85;0.63;;;;;;;28.73;20.86;100432.13;4999717;28;20028;-74
2021/05/22 10:42:53;;;;;;;3.58;0.93;;;;;;;28.90;19.94;100423.94;5015828;28;20066;-74
2021/05/22 10:45:37;;;;;;;2.05;0.80;;;;;;;28.45;20.38;100422.84;5015307;28;20022;-75
2021/05/22 10:48:27;;;;;;;1.23;0.85;;;;;;;28.09;21.34;100424.44;5016942;28;20021;-75
2021/05/22 10:50:52;;;;;;;1.38;0.98;;;;;;;28.10;21.45;100416.66;5001192;28;20034;-75
2021/05/22 10:53:32;;;;;;;2.17;1.40;;;;;;;28.80;20.50;100428.91;5015273;28;20048;-75
2021/05/22 10:56:15;;;;;;;2.72;0.75;;;;;;;29.14;20.23;100413.34;5014891;28;20425;-75
2021/05/22 10:58:59;;;;;;;1.27;0.98;;;;;;;27.80;20.60;100401.25;5016196;28;20029;-74
2021/05/22 11:01:31;;;;;;;2.15;0.95;;;;;;;28.71;20.08;100403.97;5015149;28;20085;-75
2021/05/22 11:04:25;;;;;;;1.35;0.90;;;;;;;29.16;20.63;100395.66;5015580;28;20357;-75
2021/05/22 11:07:14;;;;;;;0.57;0.55;;;;;;;28.18;20.03;100390.13;5014777;28;20060;-75
2021/05/22 11:09:39;;;;;;;1.73;0.70;;;;;;;28.37;19.59;100390.88;5015093;28;20037;-75
2021/05/22 11:12:34;;;;;;;0.70;0.55;;;;;;;27.75;20.43;100387.59;5014982;28;20026;-75
2021/05/22 11:15:00;;;;;;;2.45;1.15;;;;;;;27.49;19.49;100389.97;5014900;28;20049;-75
2021/05/22 11:17:26;;;;;;;2.35;0.75;;;;;;;27.12;19.40;100379.28;5014841;28;20029;-75
2021/05/22 11:20:00;;;;;;;0.95;0.55;;;;;;;27.46;19.50;100371.72;5014895;28;20075;-76
2021/05/22 11:22:26;;;;;;;1.85;0.73;;;;;;;27.42;19.68;100380.44;5014752;28;20044;-75
2021/05/22 11:25:09;;;;;;;1.05;0.60;;;;;;;28.20;19.52;100373.25;5014788;28;20460;-74
2021/05/22 11:27:44;;;;;;;1.00;0.68;;;;;;;27.75;19.60;100368.41;5015062;28;20097;-75
2021/05/22 11:30:15;;;;;;;1.80;0.52;;;;;;;27.71;18.75;100372.72;5014691;28;20042;-74